Baileyton, Alabama
Current Conditions -  °F | °C
As of 8:55 AM on Saturday 20 Dec 2014 (Local Time) from KCMD Reporting Station
Haze Haze  
Wind Chill: 34°   Ceiling: Unl
Heat Index: 37°   Visibility: 5mi
Dew Point: 32°   Wind: 5mph
Humidity: 83%   Direction: 350°N
Pressure: 30.25"   Gusts: NA
Location:  34.26°N, 86.61°W
Report Text: KCMD 201455Z AUTO 35004KT 5SM HZ CLR 03/00 A3025 RMK AO2 T00290002
Loading
Personal Weather Stations






























Interactive Weather Map New forecast layout! Learn more

10-Day Weather Forecast

Advertisements
Track Severe Weather on mobile